sensor_id;sensor_type;location;lat;lon;timestamp;P1;durP1;ratioP1;P2;durP2;ratioP2
49972;SDS011;35865;49.798;10.968;2022-07-12T00:01:40;2.22;;;1.05;;
49972;SDS011;35865;49.798;10.968;2022-07-12T00:04:06;1.67;;;1.00;;
49972;SDS011;35865;49.798;10.968;2022-07-12T00:06:34;1.58;;;0.80;;
49972;SDS011;35865;49.798;10.968;2022-07-12T00:09:01;2.53;;;0.90;;
49972;SDS011;35865;49.798;10.968;2022-07-12T00:11:28;2.38;;;1.10;;
49972;SDS011;35865;49.798;10.968;2022-07-12T00:13:56;3.15;;;1.23;;
49972;SDS011;35865;49.798;10.968;2022-07-12T00:16:22;1.77;;;0.90;;
49972;SDS011;35865;49.798;10.968;2022-07-12T00:18:49;2.63;;;1.10;;
49972;SDS011;35865;49.798;10.968;2022-07-12T00:21:16;2.47;;;1.25;;
49972;SDS011;35865;49.798;10.968;2022-07-12T00:23:44;2.15;;;1.00;;
49972;SDS011;35865;49.798;10.968;2022-07-12T00:26:10;2.42;;;1.45;;
49972;SDS011;35865;49.798;10.968;2022-07-12T00:28:37;2.35;;;1.10;;
49972;SDS011;35865;49.798;10.968;2022-07-12T00:31:03;1999.90;;;999.90;;
49972;SDS011;35865;49.798;10.968;2022-07-12T00:33:30;3.85;;;1.10;;
49972;SDS011;35865;49.798;10.968;2022-07-12T00:35:57;1.33;;;0.80;;
49972;SDS011;35865;49.798;10.968;2022-07-12T00:38:24;1.88;;;1.08;;
49972;SDS011;35865;49.798;10.968;2022-07-12T00:40:51;2.88;;;1.40;;
49972;SDS011;35865;49.798;10.968;2022-07-12T00:43:18;3.28;;;1.63;;
49972;SDS011;35865;49.798;10.968;2022-07-12T00:45:45;3.28;;;1.60;;
49972;SDS011;35865;49.798;10.968;2022-07-12T00:48:11;3.38;;;1.60;;
49972;SDS011;35865;49.798;10.968;2022-07-12T00:50:38;3.53;;;1.38;;
49972;SDS011;35865;49.798;10.968;2022-07-12T00:53:06;2.53;;;1.40;;
49972;SDS011;35865;49.798;10.968;2022-07-12T00:55:34;3.15;;;1.80;;
49972;SDS011;35865;49.798;10.968;2022-07-12T00:58:02;1.70;;;0.95;;
49972;SDS011;35865;49.798;10.968;2022-07-12T01:00:29;1.50;;;0.85;;
49972;SDS011;35865;49.798;10.968;2022-07-12T01:02:56;1999.90;;;999.90;;
49972;SDS011;35865;49.798;10.968;2022-07-12T01:05:25;1999.90;;;999.90;;
49972;SDS011;35865;49.798;10.968;2022-07-12T01:07:53;1999.90;;;999.90;;
49972;SDS011;35865;49.798;10.968;2022-07-12T01:10:22;1999.90;;;999.90;;
49972;SDS011;35865;49.798;10.968;2022-07-12T01:12:49;1999.90;;;999.90;;
49972;SDS011;35865;49.798;10.968;2022-07-12T01:15:17;1999.90;;;999.90;;
49972;SDS011;35865;49.798;10.968;2022-07-12T01:17:46;2.60;;;1.58;;
49972;SDS011;35865;49.798;10.968;2022-07-12T01:20:13;1999.90;;;999.90;;
49972;SDS011;35865;49.798;10.968;2022-07-12T01:22:40;2.95;;;1.73;;
49972;SDS011;35865;49.798;10.968;2022-07-12T01:25:11;3.78;;;1.90;;
49972;SDS011;35865;49.798;10.968;2022-07-12T01:27:37;3.33;;;1.88;;
49972;SDS011;35865;49.798;10.968;2022-07-12T01:30:04;3.65;;;1.83;;
49972;SDS011;35865;49.798;10.968;2022-07-12T01:32:31;3.40;;;0.80;;
49972;SDS011;35865;49.798;10.968;2022-07-12T01:35:02;3.15;;;1.65;;
49972;SDS011;35865;49.798;10.968;2022-07-12T01:37:31;2.90;;;1.65;;
49972;SDS011;35865;49.798;10.968;2022-07-12T01:40:00;6.05;;;1.73;;
49972;SDS011;35865;49.798;10.968;2022-07-12T01:42:29;2.75;;;1.77;;
49972;SDS011;35865;49.798;10.968;2022-07-12T01:44:56;2.67;;;1.60;;
49972;SDS011;35865;49.798;10.968;2022-07-12T01:47:24;3.03;;;1.65;;
49972;SDS011;35865;49.798;10.968;2022-07-12T01:49:52;3.50;;;1.90;;
49972;SDS011;35865;49.798;10.968;2022-07-12T01:52:19;4.53;;;1.75;;
49972;SDS011;35865;49.798;10.968;2022-07-12T01:54:46;3.38;;;1.95;;
49972;SDS011;35865;49.798;10.968;2022-07-12T01:57:13;2.95;;;1.73;;
49972;SDS011;35865;49.798;10.968;2022-07-12T01:59:41;3.33;;;1.98;;
49972;SDS011;35865;49.798;10.968;2022-07-12T02:02:08;2.90;;;1.67;;
49972;SDS011;35865;49.798;10.968;2022-07-12T02:04:35;4.47;;;2.05;;
49972;SDS011;35865;49.798;10.968;2022-07-12T02:07:02;2.67;;;1.65;;
49972;SDS011;35865;49.798;10.968;2022-07-12T02:09:29;2.83;;;1.77;;
49972;SDS011;35865;49.798;10.968;2022-07-12T02:11:56;2.90;;;1.65;;
49972;SDS011;35865;49.798;10.968;2022-07-12T02:14:23;3.22;;;1.80;;
49972;SDS011;35865;49.798;10.968;2022-07-12T02:16:51;4.55;;;2.00;;
49972;SDS011;35865;49.798;10.968;2022-07-12T02:19:17;3.60;;;2.05;;
49972;SDS011;35865;49.798;10.968;2022-07-12T02:21:44;4.05;;;2.20;;
49972;SDS011;35865;49.798;10.968;2022-07-12T02:24:11;4.55;;;2.00;;
49972;SDS011;35865;49.798;10.968;2022-07-12T02:26:37;3.90;;;2.17;;
49972;SDS011;35865;49.798;10.968;2022-07-12T02:29:04;4.07;;;2.08;;
49972;SDS011;35865;49.798;10.968;2022-07-12T02:31:32;6.15;;;2.92;;
49972;SDS011;35865;49.798;10.968;2022-07-12T02:34:00;4.45;;;2.75;;
49972;SDS011;35865;49.798;10.968;2022-07-12T02:36:26;5.43;;;2.80;;
49972;SDS011;35865;49.798;10.968;2022-07-12T02:38:53;5.65;;;2.78;;
49972;SDS011;35865;49.798;10.968;2022-07-12T02:41:20;5.75;;;2.30;;
49972;SDS011;35865;49.798;10.968;2022-07-12T02:43:46;8.15;;;2.47;;
49972;SDS011;35865;49.798;10.968;2022-07-12T02:46:13;4.55;;;2.63;;
49972;SDS011;35865;49.798;10.968;2022-07-12T02:48:40;4.32;;;2.47;;
49972;SDS011;35865;49.798;10.968;2022-07-12T02:51:08;5.15;;;2.50;;
49972;SDS011;35865;49.798;10.968;2022-07-12T02:53:36;3.63;;;2.28;;
49972;SDS011;35865;49.798;10.968;2022-07-12T02:56:03;4.57;;;2.50;;
49972;SDS011;35865;49.798;10.968;2022-07-12T02:58:30;5.10;;;2.55;;
49972;SDS011;35865;49.798;10.968;2022-07-12T03:00:57;8.18;;;2.83;;
49972;SDS011;35865;49.798;10.968;2022-07-12T03:03:23;6.78;;;2.83;;
49972;SDS011;35865;49.798;10.968;2022-07-12T03:05:50;4.82;;;2.60;;
49972;SDS011;35865;49.798;10.968;2022-07-12T03:08:18;4.95;;;2.25;;
49972;SDS011;35865;49.798;10.968;2022-07-12T03:10:45;6.22;;;2.03;;
49972;SDS011;35865;49.798;10.968;2022-07-12T03:13:11;5.43;;;2.25;;
49972;SDS011;35865;49.798;10.968;2022-07-12T03:15:38;3.00;;;1.88;;
49972;SDS011;35865;49.798;10.968;2022-07-12T03:18:05;4.30;;;2.80;;
49972;SDS011;35865;49.798;10.968;2022-07-12T03:20:31;3.88;;;2.30;;
49972;SDS011;35865;49.798;10.968;2022-07-12T03:22:58;6.50;;;2.70;;
49972;SDS011;35865;49.798;10.968;2022-07-12T03:25:26;5.40;;;2.20;;
49972;SDS011;35865;49.798;10.968;2022-07-12T03:27:53;4.55;;;2.17;;
49972;SDS011;35865;49.798;10.968;2022-07-12T03:30:20;3.78;;;2.17;;
49972;SDS011;35865;49.798;10.968;2022-07-12T03:32:46;6.43;;;2.15;;
49972;SDS011;35865;49.798;10.968;2022-07-12T03:35:13;3.33;;;1.60;;
49972;SDS011;35865;49.798;10.968;2022-07-12T03:37:40;4.78;;;2.13;;
49972;SDS011;35865;49.798;10.968;2022-07-12T03:40:08;4.05;;;2.38;;
49972;SDS011;35865;49.798;10.968;2022-07-12T03:42:37;6.32;;;2.22;;
49972;SDS011;35865;49.798;10.968;2022-07-12T03:45:04;3.58;;;2.00;;
49972;SDS011;35865;49.798;10.968;2022-07-12T03:47:31;9.48;;;2.63;;
49972;SDS011;35865;49.798;10.968;2022-07-12T03:50:00;6.70;;;2.38;;
49972;SDS011;35865;49.798;10.968;2022-07-12T03:52:26;7.70;;;2.72;;
49972;SDS011;35865;49.798;10.968;2022-07-12T03:54:53;9.63;;;2.50;;
49972;SDS011;35865;49.798;10.968;2022-07-12T03:57:20;5.80;;;2.78;;
49972;SDS011;35865;49.798;10.968;2022-07-12T03:59:47;9.52;;;3.30;;
49972;SDS011;35865;49.798;10.968;2022-07-12T04:02:14;5.53;;;2.42;;
49972;SDS011;35865;49.798;10.968;2022-07-12T04:04:41;7.28;;;2.35;;
49972;SDS011;35865;49.798;10.968;2022-07-12T04:07:07;6.75;;;2.30;;
49972;SDS011;35865;49.798;10.968;2022-07-12T04:09:34;3.72;;;2.20;;
49972;SDS011;35865;49.798;10.968;2022-07-12T04:12:01;3.92;;;1.90;;
49972;SDS011;35865;49.798;10.968;2022-07-12T04:14:28;4.10;;;1.95;;
49972;SDS011;35865;49.798;10.968;2022-07-12T04:16:56;4.05;;;2.13;;
49972;SDS011;35865;49.798;10.968;2022-07-12T04:19:23;4.80;;;2.58;;
49972;SDS011;35865;49.798;10.968;2022-07-12T04:21:52;5.32;;;2.40;;
49972;SDS011;35865;49.798;10.968;2022-07-12T04:24:19;5.03;;;2.72;;
49972;SDS011;35865;49.798;10.968;2022-07-12T04:26:46;3.65;;;2.30;;
49972;SDS011;35865;49.798;10.968;2022-07-12T04:29:13;4.25;;;2.95;;
49972;SDS011;35865;49.798;10.968;2022-07-12T04:31:40;4.57;;;2.33;;
49972;SDS011;35865;49.798;10.968;2022-07-12T04:34:08;4.95;;;2.47;;
49972;SDS011;35865;49.798;10.968;2022-07-12T04:36:34;3.80;;;2.10;;
49972;SDS011;35865;49.798;10.968;2022-07-12T04:39:01;6.50;;;2.55;;
49972;SDS011;35865;49.798;10.968;2022-07-12T04:41:29;4.05;;;2.10;;
49972;SDS011;35865;49.798;10.968;2022-07-12T04:43:56;2.83;;;1.90;;
49972;SDS011;35865;49.798;10.968;2022-07-12T04:46:22;3.63;;;2.08;;
49972;SDS011;35865;49.798;10.968;2022-07-12T04:48:49;4.65;;;1.90;;
49972;SDS011;35865;49.798;10.968;2022-07-12T04:51:17;2.42;;;1.52;;
49972;SDS011;35865;49.798;10.968;2022-07-12T04:53:43;3.28;;;1.85;;
49972;SDS011;35865;49.798;10.968;2022-07-12T04:56:10;1.95;;;1.38;;
49972;SDS011;35865;49.798;10.968;2022-07-12T04:58:36;2.30;;;1.60;;
49972;SDS011;35865;49.798;10.968;2022-07-12T05:01:03;2.35;;;1.42;;
49972;SDS011;35865;49.798;10.968;2022-07-12T05:03:30;2.17;;;1.40;;
49972;SDS011;35865;49.798;10.968;2022-07-12T05:05:57;2.85;;;1.40;;
49972;SDS011;35865;49.798;10.968;2022-07-12T05:08:25;2.15;;;1.42;;
49972;SDS011;35865;49.798;10.968;2022-07-12T05:10:52;3.33;;;1.40;;
49972;SDS011;35865;49.798;10.968;2022-07-12T05:13:18;1.98;;;1.30;;
49972;SDS011;35865;49.798;10.968;2022-07-12T05:15:45;2.05;;;1.35;;
49972;SDS011;35865;49.798;10.968;2022-07-12T05:18:11;2.65;;;1.42;;
49972;SDS011;35865;49.798;10.968;2022-07-12T05:20:38;2.13;;;1.58;;
49972;SDS011;35865;49.798;10.968;2022-07-12T05:23:05;2.15;;;1.13;;
49972;SDS011;35865;49.798;10.968;2022-07-12T05:25:33;2.25;;;1.33;;
49972;SDS011;35865;49.798;10.968;2022-07-12T05:27:59;2.00;;;0.98;;
49972;SDS011;35865;49.798;10.968;2022-07-12T05:30:26;1.50;;;0.90;;
49972;SDS011;35865;49.798;10.968;2022-07-12T05:32:52;1.42;;;0.90;;
49972;SDS011;35865;49.798;10.968;2022-07-12T05:35:19;1.67;;;1.10;;
49972;SDS011;35865;49.798;10.968;2022-07-12T05:37:46;1.83;;;1.00;;
49972;SDS011;35865;49.798;10.968;2022-07-12T05:40:14;1.45;;;1.15;;
49972;SDS011;35865;49.798;10.968;2022-07-12T05:42:42;1.48;;;1.10;;
49972;SDS011;35865;49.798;10.968;2022-07-12T05:45:09;1.95;;;1.00;;
49972;SDS011;35865;49.798;10.968;2022-07-12T05:47:35;2.08;;;1.35;;
49972;SDS011;35865;49.798;10.968;2022-07-12T05:50:03;2.42;;;1.23;;
49972;SDS011;35865;49.798;10.968;2022-07-12T05:52:30;1.92;;;1.17;;
49972;SDS011;35865;49.798;10.968;2022-07-12T05:55:14;1.63;;;1.15;;
49972;SDS011;35865;49.798;10.968;2022-07-12T05:57:43;2.25;;;1.30;;
49972;SDS011;35865;49.798;10.968;2022-07-12T06:00:10;3.03;;;1.33;;
49972;SDS011;35865;49.798;10.968;2022-07-12T06:02:37;2.15;;;1.33;;
49972;SDS011;35865;49.798;10.968;2022-07-12T06:05:03;1.40;;;1.10;;
49972;SDS011;35865;49.798;10.968;2022-07-12T06:07:30;1.67;;;1.20;;
49972;SDS011;35865;49.798;10.968;2022-07-12T06:09:57;1.92;;;1.23;;
49972;SDS011;35865;49.798;10.968;2022-07-12T06:12:24;2.38;;;1.38;;
49972;SDS011;35865;49.798;10.968;2022-07-12T06:14:52;1.42;;;1.08;;
49972;SDS011;35865;49.798;10.968;2022-07-12T06:17:18;2.08;;;1.30;;
49972;SDS011;35865;49.798;10.968;2022-07-12T06:19:47;1.48;;;1.10;;
49972;SDS011;35865;49.798;10.968;2022-07-12T06:22:14;2.03;;;1.20;;
49972;SDS011;35865;49.798;10.968;2022-07-12T06:24:40;1.80;;;1.30;;
49972;SDS011;35865;49.798;10.968;2022-07-12T06:27:07;1.83;;;1.10;;
49972;SDS011;35865;49.798;10.968;2022-07-12T06:29:34;2.05;;;1.10;;
49972;SDS011;35865;49.798;10.968;2022-07-12T06:32:02;2.67;;;1.17;;
49972;SDS011;35865;49.798;10.968;2022-07-12T06:34:28;5.05;;;1.60;;
49972;SDS011;35865;49.798;10.968;2022-07-12T06:36:55;1.92;;;0.98;;
49972;SDS011;35865;49.798;10.968;2022-07-12T06:39:21;3.83;;;1.40;;
49972;SDS011;35865;49.798;10.968;2022-07-12T06:41:48;1.48;;;1.25;;
49972;SDS011;35865;49.798;10.968;2022-07-12T06:44:14;1.80;;;1.00;;
49972;SDS011;35865;49.798;10.968;2022-07-12T06:46:41;1.80;;;1.27;;
49972;SDS011;35865;49.798;10.968;2022-07-12T06:49:09;2.03;;;1.15;;
49972;SDS011;35865;49.798;10.968;2022-07-12T06:51:35;3.90;;;1.33;;
49972;SDS011;35865;49.798;10.968;2022-07-12T06:54:04;1.73;;;1.00;;
49972;SDS011;35865;49.798;10.968;2022-07-12T06:56:30;2.80;;;1.23;;
49972;SDS011;35865;49.798;10.968;2022-07-12T06:58:57;1.20;;;1.02;;
49972;SDS011;35865;49.798;10.968;2022-07-12T07:01:24;1.35;;;0.90;;
49972;SDS011;35865;49.798;10.968;2022-07-12T07:03:51;2.13;;;1.10;;
49972;SDS011;35865;49.798;10.968;2022-07-12T07:06:19;1.40;;;0.80;;
49972;SDS011;35865;49.798;10.968;2022-07-12T07:08:45;1.00;;;0.80;;
49972;SDS011;35865;49.798;10.968;2022-07-12T07:11:12;2.30;;;0.90;;
49972;SDS011;35865;49.798;10.968;2022-07-12T07:13:39;1.48;;;0.90;;
49972;SDS011;35865;49.798;10.968;2022-07-12T07:16:05;2.50;;;0.90;;
49972;SDS011;35865;49.798;10.968;2022-07-12T07:18:32;1.63;;;1.20;;
49972;SDS011;35865;49.798;10.968;2022-07-12T07:20:59;2.50;;;1.02;;
49972;SDS011;35865;49.798;10.968;2022-07-12T07:23:27;1.30;;;0.90;;
49972;SDS011;35865;49.798;10.968;2022-07-12T07:25:54;1.58;;;1.02;;
49972;SDS011;35865;49.798;10.968;2022-07-12T07:28:21;2.03;;;1.23;;
49972;SDS011;35865;49.798;10.968;2022-07-12T07:30:47;1.73;;;1.00;;
49972;SDS011;35865;49.798;10.968;2022-07-12T07:33:19;2.20;;;1.10;;
49972;SDS011;35865;49.798;10.968;2022-07-12T07:35:46;1.17;;;1.00;;
49972;SDS011;35865;49.798;10.968;2022-07-12T07:38:13;3.05;;;1.00;;
49972;SDS011;35865;49.798;10.968;2022-07-12T07:40:41;1.10;;;0.90;;
49972;SDS011;35865;49.798;10.968;2022-07-12T07:43:08;1.77;;;0.90;;
49972;SDS011;35865;49.798;10.968;2022-07-12T07:45:34;1.80;;;0.85;;
49972;SDS011;35865;49.798;10.968;2022-07-12T07:48:01;1.13;;;0.90;;
49972;SDS011;35865;49.798;10.968;2022-07-12T07:50:27;1.17;;;0.80;;
49972;SDS011;35865;49.798;10.968;2022-07-12T07:52:56;1.30;;;0.90;;
49972;SDS011;35865;49.798;10.968;2022-07-12T07:55:22;1.80;;;0.90;;
49972;SDS011;35865;49.798;10.968;2022-07-12T07:57:51;1.52;;;1.00;;
49972;SDS011;35865;49.798;10.968;2022-07-12T08:00:18;1.40;;;0.90;;
49972;SDS011;35865;49.798;10.968;2022-07-12T08:02:44;5.05;;;1.10;;
49972;SDS011;35865;49.798;10.968;2022-07-12T08:05:11;1.73;;;0.85;;
49972;SDS011;35865;49.798;10.968;2022-07-12T08:07:37;1.83;;;1.00;;
49972;SDS011;35865;49.798;10.968;2022-07-12T08:10:04;1.77;;;1.00;;
49972;SDS011;35865;49.798;10.968;2022-07-12T08:12:31;3.20;;;1.00;;
49972;SDS011;35865;49.798;10.968;2022-07-12T08:14:59;1.38;;;0.90;;
49972;SDS011;35865;49.798;10.968;2022-07-12T08:17:26;1.88;;;0.93;;
49972;SDS011;35865;49.798;10.968;2022-07-12T08:19:53;1.88;;;1.13;;
49972;SDS011;35865;49.798;10.968;2022-07-12T08:22:20;1.10;;;0.80;;
49972;SDS011;35865;49.798;10.968;2022-07-12T08:24:46;1.70;;;0.85;;
49972;SDS011;35865;49.798;10.968;2022-07-12T08:27:13;1.83;;;0.90;;
49972;SDS011;35865;49.798;10.968;2022-07-12T08:29:40;1.77;;;0.80;;
49972;SDS011;35865;49.798;10.968;2022-07-12T08:32:08;1.85;;;0.80;;
49972;SDS011;35865;49.798;10.968;2022-07-12T08:34:34;1.25;;;0.70;;
49972;SDS011;35865;49.798;10.968;2022-07-12T08:37:01;2.35;;;0.80;;
49972;SDS011;35865;49.798;10.968;2022-07-12T08:39:28;2.63;;;1.00;;
49972;SDS011;35865;49.798;10.968;2022-07-12T08:41:55;2.60;;;0.70;;
49972;SDS011;35865;49.798;10.968;2022-07-12T08:44:21;1.05;;;0.65;;
49972;SDS011;35865;49.798;10.968;2022-07-12T08:46:48;2.42;;;1.02;;
49972;SDS011;35865;49.798;10.968;2022-07-12T08:49:16;0.95;;;0.75;;
49972;SDS011;35865;49.798;10.968;2022-07-12T08:51:42;0.82;;;0.65;;
49972;SDS011;35865;49.798;10.968;2022-07-12T08:54:10;1.35;;;0.80;;
49972;SDS011;35865;49.798;10.968;2022-07-12T08:56:38;1.30;;;0.60;;
49972;SDS011;35865;49.798;10.968;2022-07-12T08:59:09;1.45;;;0.90;;
49972;SDS011;35865;49.798;10.968;2022-07-12T09:01:41;1.55;;;0.80;;
49972;SDS011;35865;49.798;10.968;2022-07-12T09:04:09;1.52;;;0.70;;
49972;SDS011;35865;49.798;10.968;2022-07-12T09:06:37;1.13;;;0.70;;
49972;SDS011;35865;49.798;10.968;2022-07-12T09:09:04;1.90;;;0.90;;
49972;SDS011;35865;49.798;10.968;2022-07-12T09:11:33;2.47;;;1.00;;
49972;SDS011;35865;49.798;10.968;2022-07-12T09:14:01;2.30;;;0.88;;
49972;SDS011;35865;49.798;10.968;2022-07-12T09:16:28;1.88;;;0.80;;
49972;SDS011;35865;49.798;10.968;2022-07-12T09:21:47;1.92;;;0.90;;
49972;SDS011;35865;49.798;10.968;2022-07-12T09:24:16;1.08;;;0.70;;
49972;SDS011;35865;49.798;10.968;2022-07-12T09:26:43;1.67;;;0.90;;
49972;SDS011;35865;49.798;10.968;2022-07-12T09:29:12;0.63;;;0.60;;
49972;SDS011;35865;49.798;10.968;2022-07-12T09:31:40;1.50;;;0.73;;
49972;SDS011;35865;49.798;10.968;2022-07-12T09:34:28;1.88;;;0.80;;
49972;SDS011;35865;49.798;10.968;2022-07-12T09:37:13;1.17;;;0.70;;
49972;SDS011;35865;49.798;10.968;2022-07-12T09:39:40;1.70;;;0.70;;
49972;SDS011;35865;49.798;10.968;2022-07-12T09:42:08;0.95;;;0.77;;
49972;SDS011;35865;49.798;10.968;2022-07-12T09:44:36;1.67;;;0.70;;
49972;SDS011;35865;49.798;10.968;2022-07-12T09:47:03;0.73;;;0.70;;
49972;SDS011;35865;49.798;10.968;2022-07-12T09:49:30;1.90;;;0.95;;
49972;SDS011;35865;49.798;10.968;2022-07-12T09:51:57;1.48;;;0.80;;
49972;SDS011;35865;49.798;10.968;2022-07-12T09:54:27;1.20;;;0.80;;
49972;SDS011;35865;49.798;10.968;2022-07-12T09:56:54;2.30;;;0.80;;
49972;SDS011;35865;49.798;10.968;2022-07-12T09:59:24;1.42;;;0.75;;
49972;SDS011;35865;49.798;10.968;2022-07-12T10:01:54;1.40;;;0.90;;
49972;SDS011;35865;49.798;10.968;2022-07-12T10:04:24;1.15;;;0.90;;
49972;SDS011;35865;49.798;10.968;2022-07-12T10:06:55;1.98;;;0.80;;
49972;SDS011;35865;49.798;10.968;2022-07-12T10:09:22;0.90;;;0.77;;
49972;SDS011;35865;49.798;10.968;2022-07-12T10:11:51;1.15;;;0.70;;
49972;SDS011;35865;49.798;10.968;2022-07-12T10:14:19;1.55;;;0.73;;
49972;SDS011;35865;49.798;10.968;2022-07-12T10:16:49;1.48;;;0.70;;
49972;SDS011;35865;49.798;10.968;2022-07-12T10:19:20;0.73;;;0.70;;
49972;SDS011;35865;49.798;10.968;2022-07-12T10:21:51;0.93;;;0.70;;
49972;SDS011;35865;49.798;10.968;2022-07-12T10:27:33;0.70;;;0.70;;
49972;SDS011;35865;49.798;10.968;2022-07-12T10:30:13;1.50;;;0.70;;
49972;SDS011;35865;49.798;10.968;2022-07-12T10:32:50;1.23;;;0.70;;
49972;SDS011;35865;49.798;10.968;2022-07-12T10:35:19;1.75;;;0.75;;
49972;SDS011;35865;49.798;10.968;2022-07-12T10:40:42;1.55;;;0.75;;
49972;SDS011;35865;49.798;10.968;2022-07-12T10:43:18;0.70;;;0.68;;
49972;SDS011;35865;49.798;10.968;2022-07-12T10:45:46;1.20;;;0.63;;
49972;SDS011;35865;49.798;10.968;2022-07-12T10:48:20;0.80;;;0.80;;
49972;SDS011;35865;49.798;10.968;2022-07-12T10:50:49;2.35;;;0.80;;
49972;SDS011;35865;49.798;10.968;2022-07-12T10:53:22;1.98;;;1.17;;
49972;SDS011;35865;49.798;10.968;2022-07-12T10:56:11;1.92;;;0.90;;
49972;SDS011;35865;49.798;10.968;2022-07-12T10:58:42;0.75;;;0.65;;
49972;SDS011;35865;49.798;10.968;2022-07-12T11:01:10;1.35;;;0.80;;
49972;SDS011;35865;49.798;10.968;2022-07-12T11:03:38;1.80;;;0.88;;
49972;SDS011;35865;49.798;10.968;2022-07-12T11:06:06;1.77;;;0.80;;
49972;SDS011;35865;49.798;10.968;2022-07-12T11:08:46;0.60;;;0.60;;
49972;SDS011;35865;49.798;10.968;2022-07-12T11:11:17;0.70;;;0.70;;
49972;SDS011;35865;49.798;10.968;2022-07-12T11:13:45;0.98;;;0.80;;
49972;SDS011;35865;49.798;10.968;2022-07-12T11:16:12;1.50;;;0.82;;
49972;SDS011;35865;49.798;10.968;2022-07-12T11:18:39;1.00;;;0.80;;
49972;SDS011;35865;49.798;10.968;2022-07-12T11:21:05;1.00;;;0.75;;
49972;SDS011;35865;49.798;10.968;2022-07-12T11:23:32;1.23;;;0.80;;
49972;SDS011;35865;49.798;10.968;2022-07-12T11:26:00;1.30;;;0.70;;
49972;SDS011;35865;49.798;10.968;2022-07-12T11:28:28;0.60;;;0.60;;
49972;SDS011;35865;49.798;10.968;2022-07-12T11:31:02;2.22;;;0.80;;
49972;SDS011;35865;49.798;10.968;2022-07-12T11:33:31;0.88;;;0.60;;
49972;SDS011;35865;49.798;10.968;2022-07-12T11:36:00;0.82;;;0.70;;
49972;SDS011;35865;49.798;10.968;2022-07-12T11:38:28;2.78;;;0.80;;
49972;SDS011;35865;49.798;10.968;2022-07-12T11:40:55;1.42;;;0.80;;
49972;SDS011;35865;49.798;10.968;2022-07-12T11:43:22;0.73;;;0.70;;
49972;SDS011;35865;49.798;10.968;2022-07-12T11:45:50;1.70;;;0.90;;
49972;SDS011;35865;49.798;10.968;2022-07-12T11:48:18;1.00;;;0.80;;
49972;SDS011;35865;49.798;10.968;2022-07-12T11:50:46;1.10;;;0.70;;
49972;SDS011;35865;49.798;10.968;2022-07-12T11:53:17;1.23;;;0.73;;
49972;SDS011;35865;49.798;10.968;2022-07-12T11:55:45;0.75;;;0.75;;
49972;SDS011;35865;49.798;10.968;2022-07-12T11:58:15;1.27;;;0.80;;
49972;SDS011;35865;49.798;10.968;2022-07-12T12:00:43;1.42;;;0.90;;
49972;SDS011;35865;49.798;10.968;2022-07-12T12:03:12;1.45;;;0.80;;
49972;SDS011;35865;49.798;10.968;2022-07-12T12:05:42;1.02;;;0.85;;
49972;SDS011;35865;49.798;10.968;2022-07-12T12:08:10;1.92;;;0.88;;
49972;SDS011;35865;49.798;10.968;2022-07-12T12:10:39;1.55;;;0.80;;
49972;SDS011;35865;49.798;10.968;2022-07-12T12:13:12;1.75;;;0.77;;
49972;SDS011;35865;49.798;10.968;2022-07-12T12:15:41;1.10;;;0.70;;
49972;SDS011;35865;49.798;10.968;2022-07-12T12:18:14;1.85;;;0.85;;
49972;SDS011;35865;49.798;10.968;2022-07-12T12:20:42;0.60;;;0.60;;
49972;SDS011;35865;49.798;10.968;2022-07-12T12:23:14;0.77;;;0.60;;
49972;SDS011;35865;49.798;10.968;2022-07-12T12:25:42;0.95;;;0.68;;
49972;SDS011;35865;49.798;10.968;2022-07-12T12:28:11;0.80;;;0.73;;
49972;SDS011;35865;49.798;10.968;2022-07-12T12:30:47;1.02;;;0.73;;
49972;SDS011;35865;49.798;10.968;2022-07-12T12:36:13;1.20;;;0.65;;
49972;SDS011;35865;49.798;10.968;2022-07-12T12:38:41;1.63;;;0.70;;
49972;SDS011;35865;49.798;10.968;2022-07-12T12:41:08;0.80;;;0.70;;
49972;SDS011;35865;49.798;10.968;2022-07-12T12:43:36;1.15;;;0.60;;
49972;SDS011;35865;49.798;10.968;2022-07-12T12:46:03;0.90;;;0.77;;
49972;SDS011;35865;49.798;10.968;2022-07-12T12:48:30;1.52;;;0.80;;
49972;SDS011;35865;49.798;10.968;2022-07-12T12:51:02;2.63;;;0.82;;
49972;SDS011;35865;49.798;10.968;2022-07-12T12:53:32;1.33;;;0.93;;
49972;SDS011;35865;49.798;10.968;2022-07-12T12:55:59;0.73;;;0.70;;
49972;SDS011;35865;49.798;10.968;2022-07-12T12:58:26;0.77;;;0.60;;
49972;SDS011;35865;49.798;10.968;2022-07-12T13:00:53;1.00;;;0.70;;
49972;SDS011;35865;49.798;10.968;2022-07-12T13:03:21;0.65;;;0.63;;
49972;SDS011;35865;49.798;10.968;2022-07-12T13:05:49;1.15;;;0.55;;
49972;SDS011;35865;49.798;10.968;2022-07-12T13:08:15;1.58;;;0.60;;
49972;SDS011;35865;49.798;10.968;2022-07-12T13:10:44;1.60;;;0.65;;
49972;SDS011;35865;49.798;10.968;2022-07-12T13:13:12;1.45;;;0.65;;
49972;SDS011;35865;49.798;10.968;2022-07-12T13:15:39;0.65;;;0.60;;
49972;SDS011;35865;49.798;10.968;2022-07-12T13:18:07;2.08;;;0.90;;
49972;SDS011;35865;49.798;10.968;2022-07-12T13:20:34;0.63;;;0.63;;
49972;SDS011;35865;49.798;10.968;2022-07-12T13:23:01;0.77;;;0.77;;
49972;SDS011;35865;49.798;10.968;2022-07-12T13:25:27;0.70;;;0.70;;
49972;SDS011;35865;49.798;10.968;2022-07-12T13:27:57;0.75;;;0.70;;
49972;SDS011;35865;49.798;10.968;2022-07-12T13:30:24;2.25;;;0.57;;
49972;SDS011;35865;49.798;10.968;2022-07-12T13:32:50;1.80;;;0.65;;
49972;SDS011;35865;49.798;10.968;2022-07-12T13:35:17;3.70;;;0.80;;
49972;SDS011;35865;49.798;10.968;2022-07-12T13:37:44;0.90;;;0.70;;
49972;SDS011;35865;49.798;10.968;2022-07-12T13:40:10;0.63;;;0.60;;
49972;SDS011;35865;49.798;10.968;2022-07-12T13:42:36;0.85;;;0.57;;
49972;SDS011;35865;49.798;10.968;2022-07-12T13:45:04;1.35;;;0.50;;
49972;SDS011;35865;49.798;10.968;2022-07-12T13:47:32;1.35;;;0.60;;
49972;SDS011;35865;49.798;10.968;2022-07-12T13:49:59;1.50;;;0.70;;
49972;SDS011;35865;49.798;10.968;2022-07-12T13:52:26;0.60;;;0.60;;
49972;SDS011;35865;49.798;10.968;2022-07-12T13:54:52;1.25;;;0.57;;
49972;SDS011;35865;49.798;10.968;2022-07-12T13:57:19;1.40;;;0.70;;
49972;SDS011;35865;49.798;10.968;2022-07-12T13:59:46;1.17;;;0.60;;
49972;SDS011;35865;49.798;10.968;2022-07-12T14:02:14;0.98;;;0.70;;
49972;SDS011;35865;49.798;10.968;2022-07-12T14:04:40;0.75;;;0.60;;
49972;SDS011;35865;49.798;10.968;2022-07-12T14:07:07;1.27;;;0.52;;
49972;SDS011;35865;49.798;10.968;2022-07-12T14:09:33;0.85;;;0.60;;
49972;SDS011;35865;49.798;10.968;2022-07-12T14:12:00;2.28;;;1.20;;
49972;SDS011;35865;49.798;10.968;2022-07-12T14:14:27;0.52;;;0.52;;
49972;SDS011;35865;49.798;10.968;2022-07-12T14:17:14;1.27;;;0.60;;
49972;SDS011;35865;49.798;10.968;2022-07-12T14:19:40;1.27;;;0.60;;
49972;SDS011;35865;49.798;10.968;2022-07-12T14:22:07;1.25;;;0.80;;
49972;SDS011;35865;49.798;10.968;2022-07-12T14:24:33;0.85;;;0.63;;
49972;SDS011;35865;49.798;10.968;2022-07-12T14:27:00;1.02;;;0.60;;
49972;SDS011;35865;49.798;10.968;2022-07-12T14:29:27;1.90;;;0.70;;
49972;SDS011;35865;49.798;10.968;2022-07-12T14:31:54;0.75;;;0.70;;
49972;SDS011;35865;49.798;10.968;2022-07-12T14:34:24;0.90;;;0.70;;
49972;SDS011;35865;49.798;10.968;2022-07-12T14:36:50;0.63;;;0.63;;
49972;SDS011;35865;49.798;10.968;2022-07-12T14:39:17;1.17;;;0.70;;
49972;SDS011;35865;49.798;10.968;2022-07-12T14:41:43;0.90;;;0.60;;
49972;SDS011;35865;49.798;10.968;2022-07-12T14:44:10;3.65;;;0.80;;
49972;SDS011;35865;49.798;10.968;2022-07-12T14:46:37;0.85;;;0.70;;
49972;SDS011;35865;49.798;10.968;2022-07-12T14:49:04;1.80;;;0.60;;